createdAt,value
2023-05-18T00:00:28.115Z,102321.50
2023-05-18T00:02:55.368Z,102323.47
2023-05-18T00:05:24.273Z,102320.88
2023-05-18T00:07:54.094Z,102324.59
2023-05-18T00:10:21.064Z,102323.78
2023-05-18T00:12:48.212Z,102317.88
2023-05-18T00:15:15.314Z,102320.47
2023-05-18T00:17:47.247Z,102313.38
2023-05-18T00:20:15.357Z,102319.31
2023-05-18T00:22:45.606Z,102310.97
2023-05-18T00:25:32.221Z,102321.53
2023-05-18T00:28:00.752Z,102313.72
2023-05-18T00:30:27.747Z,102309.31
2023-05-18T00:32:59.621Z,102310.63
2023-05-18T00:35:27.104Z,102323.03
2023-05-18T00:37:57.216Z,102317.16
2023-05-18T00:40:26.594Z,102323.50
2023-05-18T00:42:55.272Z,102310.34
2023-05-18T00:45:22.362Z,102317.72
2023-05-18T00:47:52.061Z,102320.25
2023-05-18T00:50:19.332Z,102322.47
2023-05-18T00:52:47.800Z,102317.16
2023-05-18T00:55:14.697Z,102309.53
2023-05-18T00:57:45.584Z,102322.41
2023-05-18T01:00:14.317Z,102314.34
2023-05-18T01:02:54.495Z,102313.78
2023-05-18T01:05:22.504Z,102323.31
2023-05-18T01:07:59.103Z,102305.16
2023-05-18T01:10:28.481Z,102306.25
2023-05-18T01:12:58.530Z,102312.41
2023-05-18T01:15:33.034Z,102316.22
2023-05-18T01:18:33.992Z,102324.47
2023-05-18T01:21:25.695Z,102327.34
2023-05-18T01:24:11.752Z,102324.25
2023-05-18T01:26:40.752Z,102324.13
2023-05-18T01:29:10.020Z,102324.63
2023-05-18T01:31:37.146Z,102310.50
2023-05-18T01:34:04.031Z,102323.53
2023-05-18T01:36:31.756Z,102314.72
2023-05-18T01:39:01.706Z,102313.25
2023-05-18T01:41:30.770Z,102326.56
2023-05-18T01:44:08.956Z,102326.13
2023-05-18T01:46:51.234Z,102326.56
2023-05-18T01:49:29.751Z,102320.59
2023-05-18T01:51:58.788Z,102321.72
2023-05-18T01:54:27.189Z,102323.41
2023-05-18T01:56:56.468Z,102328.81
2023-05-18T01:59:24.196Z,102320.16
2023-05-18T02:01:51.583Z,102321.03
2023-05-18T02:04:27.633Z,102316.41
2023-05-18T02:06:55.322Z,102310.16
2023-05-18T02:09:22.616Z,102311.63
2023-05-18T02:11:50.779Z,102314.56
2023-05-18T02:14:17.677Z,102310.81
2023-05-18T02:16:47.592Z,102306.75
2023-05-18T02:19:15.040Z,102305.53
2023-05-18T02:21:43.762Z,102301.88
2023-05-18T02:24:11.997Z,102306.91
2023-05-18T02:26:39.378Z,102308.94
2023-05-18T02:29:11.907Z,102306.19
2023-05-18T02:31:39.055Z,102314.53
2023-05-18T02:34:06.827Z,102304.28
2023-05-18T02:36:40.468Z,102312.72
2023-05-18T02:39:19.728Z,102309.25
2023-05-18T02:41:46.643Z,102314.22
2023-05-18T02:44:13.545Z,102311.97
2023-05-18T02:46:40.468Z,102311.38
2023-05-18T02:49:12.820Z,102306.94
2023-05-18T02:51:40.328Z,102307.03
2023-05-18T02:54:07.635Z,102303.69
2023-05-18T02:56:38.538Z,102315.09
2023-05-18T02:59:15.310Z,102308.03
2023-05-18T03:01:43.623Z,102308.97
2023-05-18T03:04:10.885Z,102304.91
2023-05-18T03:06:46.692Z,102300.34
2023-05-18T03:09:16.264Z,102306.19
2023-05-18T03:11:44.898Z,102304.16
2023-05-18T03:14:12.113Z,102305.78
2023-05-18T03:16:39.982Z,102301.31
2023-05-18T03:19:14.621Z,102305.09
2023-05-18T03:21:42.926Z,102307.88
2023-05-18T03:24:10.192Z,102303.06
2023-05-18T03:26:41.961Z,102306.59
2023-05-18T03:29:09.554Z,102310.97
2023-05-18T03:31:36.673Z,102304.22
2023-05-18T03:34:03.614Z,102302.53
2023-05-18T03:36:30.345Z,102301.03
2023-05-18T03:38:57.216Z,102311.84
2023-05-18T03:41:24.611Z,102308.78
2023-05-18T03:43:53.690Z,102306.28
2023-05-18T03:46:22.009Z,102309.69
2023-05-18T03:48:49.156Z,102309.28
2023-05-18T03:51:20.831Z,102301.97
2023-05-18T03:53:48.556Z,102317.66
2023-05-18T03:56:15.930Z,102324.03
2023-05-18T03:58:44.506Z,102324.28
2023-05-18T04:01:11.450Z,102321.25
2023-05-18T04:03:38.402Z,102319.53
2023-05-18T04:06:06.491Z,102322.03
2023-05-18T04:08:34.525Z,102326.88
2023-05-18T04:11:01.659Z,102326.34
2023-05-18T04:13:28.682Z,102324.75
2023-05-18T04:15:57.999Z,102334.31
2023-05-18T04:18:30.485Z,102337.44
2023-05-18T04:20:57.424Z,102332.41
2023-05-18T04:23:24.368Z,102324.78
2023-05-18T04:25:51.731Z,102332.69
2023-05-18T04:28:19.380Z,102329.59
2023-05-18T04:30:47.697Z,102320.69
2023-05-18T04:33:16.477Z,102335.00
2023-05-18T04:35:44.954Z,102330.97
2023-05-18T04:38:12.263Z,102335.38
2023-05-18T04:40:42.648Z,102338.78
2023-05-18T04:43:10.896Z,102338.94
2023-05-18T04:45:38.917Z,102339.22
2023-05-18T04:48:06.831Z,102344.78
2023-05-18T04:50:33.965Z,102353.59
2023-05-18T04:53:02.482Z,102340.44
2023-05-18T04:55:31.373Z,102338.78
2023-05-18T04:58:03.482Z,102346.19
2023-05-18T05:00:30.997Z,102340.59
2023-05-18T05:02:58.608Z,102355.66
2023-05-18T05:05:27.577Z,102353.06
2023-05-18T05:07:56.295Z,102356.75
2023-05-18T05:10:24.329Z,102356.63
2023-05-18T05:12:51.734Z,102346.06
2023-05-18T05:15:19.825Z,102356.63
2023-05-18T05:17:49.947Z,102354.84
2023-05-18T05:20:17.599Z,102364.66
2023-05-18T05:22:44.906Z,102356.44
2023-05-18T05:25:14.508Z,102361.44
2023-05-18T05:27:41.469Z,102356.16
2023-05-18T05:30:08.825Z,102366.38
2023-05-18T05:32:37.343Z,102360.41
2023-05-18T05:35:06.209Z,102355.94
2023-05-18T05:37:35.096Z,102362.63
2023-05-18T05:40:02.147Z,102364.09
2023-05-18T05:42:32.753Z,102353.94
2023-05-18T05:44:59.732Z,102358.97
2023-05-18T05:47:27.689Z,102349.53
2023-05-18T05:49:55.752Z,102356.09
2023-05-18T05:52:22.805Z,102346.56
2023-05-18T05:54:50.792Z,102358.56
2023-05-18T05:57:17.652Z,102355.09
2023-05-18T05:59:44.763Z,102360.16
2023-05-18T06:02:12.392Z,102350.28
2023-05-18T06:04:40.710Z,102350.72
2023-05-18T06:07:07.546Z,102353.81
2023-05-18T06:09:34.408Z,102355.38
2023-05-18T06:12:01.242Z,102347.19
2023-05-18T06:14:28.700Z,102348.06
2023-05-18T06:16:57.449Z,102349.41
2023-05-18T06:19:24.664Z,102362.13
2023-05-18T06:21:52.746Z,102361.94
2023-05-18T06:24:19.752Z,102367.91
2023-05-18T06:27:06.784Z,102367.44
2023-05-18T06:29:42.808Z,102370.69
2023-05-18T06:32:28.211Z,102368.34
2023-05-18T06:34:56.604Z,102376.31
2023-05-18T06:37:23.654Z,102374.22
2023-05-18T06:39:50.468Z,102379.38
2023-05-18T06:42:26.147Z,102372.91
2023-05-18T06:45:03.379Z,102369.59
2023-05-18T06:47:48.726Z,102375.00
2023-05-18T06:50:15.857Z,102378.03
2023-05-18T06:52:42.785Z,102376.13
2023-05-18T06:55:09.874Z,102377.78
2023-05-18T06:57:37.202Z,102384.09
2023-05-18T07:00:07.376Z,102377.84
2023-05-18T07:02:34.559Z,102380.84
2023-05-18T07:05:01.688Z,102386.72
2023-05-18T07:07:28.613Z,102380.13
2023-05-18T07:09:55.488Z,102381.44
2023-05-18T07:12:22.723Z,102381.91
2023-05-18T07:14:49.762Z,102378.59
2023-05-18T07:17:19.548Z,102393.34
2023-05-18T07:19:46.643Z,102389.28
2023-05-18T07:22:19.940Z,102389.25
2023-05-18T07:24:47.078Z,102387.06
2023-05-18T07:27:14.002Z,102384.94
2023-05-18T07:29:45.725Z,102390.94
2023-05-18T07:32:13.953Z,102395.41
2023-05-18T07:34:42.617Z,102390.53
2023-05-18T07:37:15.065Z,102391.41
2023-05-18T07:39:45.697Z,102388.19
2023-05-18T07:42:12.493Z,102391.50
2023-05-18T07:44:39.340Z,102391.50
2023-05-18T07:47:06.581Z,102385.94
2023-05-18T07:49:33.406Z,102387.69
2023-05-18T07:52:02.284Z,102392.44
2023-05-18T07:54:29.133Z,102394.31
2023-05-18T07:56:58.523Z,102385.06
2023-05-18T07:59:26.683Z,102398.13
2023-05-18T08:01:53.453Z,102396.63
2023-05-18T08:04:20.501Z,102395.50
2023-05-18T08:06:47.219Z,102396.66
2023-05-18T08:09:14.256Z,102394.94
2023-05-18T08:11:42.621Z,102393.94
2023-05-18T08:14:09.383Z,102387.03
2023-05-18T08:16:37.746Z,102385.16
2023-05-18T08:19:04.785Z,102398.91
2023-05-18T08:21:33.234Z,102397.13
2023-05-18T08:24:00.187Z,102400.03
2023-05-18T08:26:27.305Z,102394.38
2023-05-18T08:28:54.312Z,102392.47
2023-05-18T08:31:21.452Z,102391.41
2023-05-18T08:33:48.933Z,102382.81
2023-05-18T08:36:17.017Z,102397.53
2023-05-18T08:38:44.081Z,102390.13
2023-05-18T08:41:31.381Z,102377.56
2023-05-18T08:44:16.265Z,102380.28
2023-05-18T08:46:51.118Z,102379.16
2023-05-18T08:49:20.438Z,102371.56
2023-05-18T08:51:58.391Z,102380.66
2023-05-18T08:54:25.582Z,102375.00
2023-05-18T08:56:55.865Z,102372.22
2023-05-18T08:59:28.141Z,102376.56
2023-05-18T09:01:55.592Z,102377.91
2023-05-18T09:04:24.991Z,102373.88
2023-05-18T09:06:54.591Z,102369.69
2023-05-18T09:09:22.516Z,102369.13
2023-05-18T09:11:50.296Z,102370.16
2023-05-18T09:14:19.778Z,102361.03
2023-05-18T09:16:46.580Z,102355.19
2023-05-18T09:19:13.507Z,102364.41
2023-05-18T09:21:40.925Z,102372.44
2023-05-18T09:24:08.019Z,102361.84
2023-05-18T09:26:34.866Z,102361.69
2023-05-18T09:29:11.369Z,102352.03
2023-05-18T09:31:38.359Z,102357.34
2023-05-18T09:34:06.591Z,102348.44
2023-05-18T09:36:34.629Z,102350.69
2023-05-18T09:39:07.737Z,102351.69
2023-05-18T09:41:34.775Z,102346.19
2023-05-18T09:44:05.204Z,102345.75
2023-05-18T09:46:32.717Z,102343.44
2023-05-18T09:48:59.838Z,102354.41
2023-05-18T09:51:27.003Z,102330.34
2023-05-18T09:53:56.247Z,102329.28
2023-05-18T09:56:24.590Z,102345.31
2023-05-18T09:58:51.706Z,102330.25
2023-05-18T10:01:19.242Z,102332.19
2023-05-18T10:03:48.485Z,102337.03
2023-05-18T10:06:17.745Z,102330.75
2023-05-18T10:08:47.536Z,102315.28
2023-05-18T10:11:18.000Z,102323.88
2023-05-18T10:13:47.191Z,102313.50
2023-05-18T10:16:16.039Z,102314.28
2023-05-18T10:18:43.017Z,102319.06
2023-05-18T10:21:12.548Z,102320.03
2023-05-18T10:23:40.843Z,102325.88
2023-05-18T10:26:10.069Z,102315.53
2023-05-18T10:28:39.166Z,102320.47
2023-05-18T10:31:07.014Z,102306.47
2023-05-18T10:33:39.334Z,102307.38
2023-05-18T10:36:07.637Z,102316.94
2023-05-18T10:38:38.844Z,102321.22
2023-05-18T10:41:06.174Z,102312.78
2023-05-18T10:43:33.780Z,102320.28
2023-05-18T10:46:01.589Z,102302.88
2023-05-18T10:48:29.704Z,102312.03
2023-05-18T10:50:57.911Z,102312.69
2023-05-18T10:53:30.018Z,102310.25
2023-05-18T10:55:56.827Z,102311.19
2023-05-18T10:58:28.052Z,102298.56
2023-05-18T11:01:03.221Z,102298.63
2023-05-18T11:03:33.267Z,102300.53
2023-05-18T11:06:08.813Z,102295.53
2023-05-18T11:08:49.882Z,102290.22
2023-05-18T11:11:19.357Z,102294.56
2023-05-18T11:13:51.339Z,102294.16
2023-05-18T11:16:19.912Z,102294.00
2023-05-18T11:18:49.952Z,102277.16
2023-05-18T11:21:29.117Z,102279.47
2023-05-18T11:24:24.948Z,102282.56
2023-05-18T11:26:55.767Z,102275.44
2023-05-18T11:29:35.629Z,102278.84
2023-05-18T11:32:02.858Z,102264.53
2023-05-18T11:34:45.434Z,102266.13
2023-05-18T11:37:32.060Z,102260.28
2023-05-18T11:40:01.618Z,102267.00
2023-05-18T11:42:36.160Z,102260.78
2023-05-18T11:45:10.204Z,102253.91
2023-05-18T11:47:39.948Z,102262.34
2023-05-18T11:50:08.808Z,102262.28
2023-05-18T11:52:49.342Z,102259.38
2023-05-18T11:55:17.421Z,102270.19
2023-05-18T11:57:47.470Z,102261.53
2023-05-18T12:00:16.193Z,102258.81
2023-05-18T12:02:45.471Z,102262.06
2023-05-18T12:05:13.203Z,102263.00
2023-05-18T12:07:40.797Z,102243.94
2023-05-18T12:10:09.034Z,102252.28
2023-05-18T12:12:36.325Z,102242.94
2023-05-18T12:15:05.621Z,102253.50
2023-05-18T12:17:42.279Z,102250.16
2023-05-18T12:20:13.515Z,102252.31
2023-05-18T12:22:41.898Z,102254.22
2023-05-18T12:25:09.848Z,102252.06
2023-05-18T12:27:41.088Z,102245.13
2023-05-18T12:30:18.020Z,102244.41
2023-05-18T12:32:47.207Z,102238.00
2023-05-18T12:35:14.192Z,102237.78
2023-05-18T12:37:45.950Z,102238.84
2023-05-18T12:40:15.147Z,102236.56
2023-05-18T12:43:03.399Z,102223.97
2023-05-18T12:45:34.721Z,102238.13
2023-05-18T12:48:12.143Z,102231.88
2023-05-18T12:50:49.413Z,102229.78
2023-05-18T12:53:17.284Z,102228.72
2023-05-18T12:55:44.409Z,102230.44
2023-05-18T12:58:19.365Z,102227.50
2023-05-18T13:00:48.793Z,102230.78
2023-05-18T13:03:23.077Z,102221.34
2023-05-18T13:06:04.703Z,102223.84
2023-05-18T13:08:36.287Z,102209.41
2023-05-18T13:11:13.820Z,102207.22
2023-05-18T13:14:01.923Z,102211.47
2023-05-18T13:16:30.537Z,102207.69
2023-05-18T13:19:02.538Z,102206.06
2023-05-18T13:21:29.880Z,102201.22
2023-05-18T13:23:56.789Z,102193.75
2023-05-18T13:26:24.681Z,102200.19
2023-05-18T13:28:54.565Z,102206.97
2023-05-18T13:31:22.441Z,102199.78
2023-05-18T13:33:50.172Z,102207.56
2023-05-18T13:36:17.760Z,102208.03
2023-05-18T13:38:44.875Z,102200.31
2023-05-18T13:41:12.607Z,102200.44
2023-05-18T13:43:39.679Z,102201.63
2023-05-18T13:46:06.693Z,102200.56
2023-05-18T13:48:33.682Z,102203.84
2023-05-18T13:51:01.183Z,102187.78
2023-05-18T13:53:28.158Z,102185.44
2023-05-18T13:55:58.191Z,102195.13
2023-05-18T13:58:25.144Z,102191.19
2023-05-18T14:00:54.039Z,102177.88
2023-05-18T14:03:21.034Z,102178.00
2023-05-18T14:05:47.890Z,102184.84
2023-05-18T14:08:14.879Z,102183.16
2023-05-18T14:10:42.231Z,102181.63
2023-05-18T14:13:09.394Z,102179.47
2023-05-18T14:15:36.596Z,102181.22
2023-05-18T14:18:06.746Z,102194.13
2023-05-18T14:20:35.213Z,102184.44
2023-05-18T14:23:04.430Z,102170.50
2023-05-18T14:25:31.883Z,102175.72
2023-05-18T14:27:59.369Z,102180.56
2023-05-18T14:30:26.698Z,102172.19
2023-05-18T14:32:56.287Z,102172.88
2023-05-18T14:35:23.228Z,102181.41
2023-05-18T14:37:50.006Z,102172.75
2023-05-18T14:40:17.311Z,102167.94
2023-05-18T14:42:44.388Z,102169.78
2023-05-18T14:45:11.363Z,102159.47
2023-05-18T14:47:38.219Z,102156.06
2023-05-18T14:50:05.679Z,102161.44
2023-05-18T14:52:32.535Z,102156.34
2023-05-18T14:54:59.406Z,102157.59
2023-05-18T14:57:26.904Z,102150.22
2023-05-18T14:59:54.067Z,102148.34
2023-05-18T15:02:20.948Z,102154.56
2023-05-18T15:04:47.810Z,102149.66
2023-05-18T15:07:14.701Z,102151.97
2023-05-18T15:09:41.889Z,102151.41
2023-05-18T15:12:09.266Z,102147.44
2023-05-18T15:14:36.767Z,102151.56
2023-05-18T15:17:03.976Z,102150.56
2023-05-18T15:19:30.879Z,102155.03
2023-05-18T15:21:57.836Z,102142.66
2023-05-18T15:24:26.358Z,102156.19
2023-05-18T15:26:53.231Z,102144.75
2023-05-18T15:29:20.751Z,102140.13
2023-05-18T15:31:51.397Z,102138.59
2023-05-18T15:34:19.657Z,102136.34
2023-05-18T15:36:47.273Z,102135.56
2023-05-18T15:39:14.609Z,102131.75
2023-05-18T15:41:41.455Z,102122.78
2023-05-18T15:44:08.339Z,102132.19
2023-05-18T15:46:36.040Z,102128.69
2023-05-18T15:49:02.996Z,102127.94
2023-05-18T15:51:31.065Z,102122.41
2023-05-18T15:53:58.307Z,102123.13
2023-05-18T15:56:25.992Z,102119.75
2023-05-18T15:58:53.121Z,102121.50
2023-05-18T16:01:19.976Z,102117.09
2023-05-18T16:03:47.318Z,102116.91
2023-05-18T16:06:14.188Z,102111.72
2023-05-18T16:08:41.307Z,102113.31
2023-05-18T16:11:08.315Z,102109.97
2023-05-18T16:13:35.297Z,102114.28
2023-05-18T16:16:03.770Z,102125.53
2023-05-18T16:18:30.629Z,102123.84
2023-05-18T16:20:57.558Z,102120.75
2023-05-18T16:23:24.902Z,102126.34
2023-05-18T16:25:51.873Z,102117.09
2023-05-18T16:28:19.086Z,102114.72
2023-05-18T16:30:46.819Z,102114.41
2023-05-18T16:33:14.255Z,102120.63
2023-05-18T16:35:41.250Z,102116.28
2023-05-18T16:38:08.139Z,102110.56
2023-05-18T16:40:35.577Z,102114.16
2023-05-18T16:43:02.532Z,102116.66
2023-05-18T16:45:31.036Z,102116.19
2023-05-18T16:48:08.179Z,102126.00
2023-05-18T16:50:35.846Z,102116.19
2023-05-18T16:53:03.386Z,102106.34
2023-05-18T16:55:31.705Z,102117.16
2023-05-18T16:57:58.556Z,102118.38
2023-05-18T17:00:25.801Z,102121.44
2023-05-18T17:02:52.871Z,102110.81
2023-05-18T17:05:23.400Z,102116.28
2023-05-18T17:07:53.701Z,102110.44
2023-05-18T17:10:20.596Z,102112.75
2023-05-18T17:12:48.269Z,102105.53
2023-05-18T17:15:18.379Z,102114.88
2023-05-18T17:17:45.801Z,102113.09
2023-05-18T17:20:13.211Z,102117.81
2023-05-18T17:22:40.262Z,102107.25
2023-05-18T17:25:08.181Z,102107.31
2023-05-18T17:27:35.168Z,102108.22
2023-05-18T17:30:02.661Z,102109.13
2023-05-18T17:32:30.218Z,102100.91
2023-05-18T17:34:57.141Z,102100.19
2023-05-18T17:37:24.157Z,102104.78
2023-05-18T17:39:51.061Z,102116.97
2023-05-18T17:42:18.170Z,102121.75
2023-05-18T17:44:47.644Z,102110.50
2023-05-18T17:47:14.699Z,102109.84
2023-05-18T17:49:42.008Z,102117.78
2023-05-18T17:52:09.005Z,102113.31
2023-05-18T17:54:36.225Z,102115.28
2023-05-18T17:57:03.240Z,102116.34
2023-05-18T17:59:30.104Z,102108.06
2023-05-18T18:01:57.382Z,102112.91
2023-05-18T18:04:24.599Z,102111.44
2023-05-18T18:06:54.708Z,102115.75
2023-05-18T18:09:22.531Z,102107.84
2023-05-18T18:11:49.489Z,102117.72
2023-05-18T18:14:17.411Z,102115.06
2023-05-18T18:16:48.304Z,102119.59
2023-05-18T18:19:15.448Z,102114.84
2023-05-18T18:21:42.366Z,102112.16
2023-05-18T18:24:09.330Z,102117.25
2023-05-18T18:26:41.158Z,102113.28
2023-05-18T18:29:07.956Z,102113.47
2023-05-18T18:31:38.276Z,102109.56
2023-05-18T18:34:05.403Z,102107.44
2023-05-18T18:36:32.402Z,102116.31
2023-05-18T18:38:59.372Z,102110.97
2023-05-18T18:41:26.303Z,102122.88
2023-05-18T18:43:56.061Z,102120.78
2023-05-18T18:46:22.847Z,102122.13
2023-05-18T18:48:49.925Z,102125.69
2023-05-18T18:51:16.798Z,102126.28
2023-05-18T18:53:43.565Z,102126.06
2023-05-18T18:56:11.170Z,102134.47
2023-05-18T18:58:38.040Z,102129.69
2023-05-18T19:01:04.903Z,102137.91
2023-05-18T19:03:33.055Z,102134.84
2023-05-18T19:06:00.229Z,102142.56
2023-05-18T19:08:27.287Z,102152.44
2023-05-18T19:10:55.037Z,102152.34
2023-05-18T19:13:22.394Z,102149.19
2023-05-18T19:15:49.444Z,102149.78
2023-05-18T19:18:16.337Z,102148.41
2023-05-18T19:20:43.283Z,102144.84
2023-05-18T19:23:10.007Z,102146.13
2023-05-18T19:25:36.914Z,102147.56
2023-05-18T19:28:03.868Z,102151.41
2023-05-18T19:30:30.717Z,102158.81
2023-05-18T19:32:57.547Z,102154.19
2023-05-18T19:35:24.558Z,102157.59
2023-05-18T19:37:51.702Z,102170.94
2023-05-18T19:40:18.579Z,102165.31
2023-05-18T19:42:45.351Z,102162.59
2023-05-18T19:45:12.235Z,102170.94
2023-05-18T19:47:39.393Z,102168.03
2023-05-18T19:50:07.176Z,102168.56
2023-05-18T19:52:36.097Z,102177.56
2023-05-18T19:55:03.048Z,102185.28
2023-05-18T19:57:30.036Z,102175.47
2023-05-18T19:59:57.811Z,102180.31
2023-05-18T20:02:24.903Z,102180.28
2023-05-18T20:04:53.380Z,102180.63
2023-05-18T20:07:20.704Z,102185.31
2023-05-18T20:09:47.614Z,102183.69
2023-05-18T20:12:15.399Z,102185.22
2023-05-18T20:14:43.508Z,102171.28
2023-05-18T20:17:10.406Z,102180.78
2023-05-18T20:19:37.890Z,102170.69
2023-05-18T20:22:05.253Z,102181.28
2023-05-18T20:24:32.999Z,102183.78
2023-05-18T20:26:59.783Z,102191.31
2023-05-18T20:29:27.097Z,102191.22
2023-05-18T20:31:54.831Z,102196.09
2023-05-18T20:34:21.976Z,102193.97
2023-05-18T20:36:49.092Z,102194.94
2023-05-18T20:39:16.327Z,102198.19
2023-05-18T20:41:43.100Z,102199.00
2023-05-18T20:44:11.559Z,102199.59
2023-05-18T20:46:42.507Z,102202.06
2023-05-18T20:49:13.729Z,102207.19
2023-05-18T20:51:41.136Z,102202.03
2023-05-18T20:54:10.874Z,102199.44
2023-05-18T20:56:38.158Z,102209.75
2023-05-18T20:59:06.495Z,102201.53
2023-05-18T21:01:39.255Z,102211.88
2023-05-18T21:04:07.226Z,102209.44
2023-05-18T21:06:41.180Z,102208.81
2023-05-18T21:09:08.232Z,102218.59
2023-05-18T21:11:35.330Z,102210.25
2023-05-18T21:14:02.298Z,102214.91
2023-05-18T21:16:31.711Z,102209.44
2023-05-18T21:19:01.673Z,102214.75
2023-05-18T21:21:35.828Z,102218.91
2023-05-18T21:24:05.352Z,102220.81
2023-05-18T21:26:38.467Z,102213.59
2023-05-18T21:29:09.980Z,102226.78
2023-05-18T21:31:37.081Z,102211.81
2023-05-18T21:34:03.919Z,102227.09
2023-05-18T21:36:36.899Z,102214.88
2023-05-18T21:39:09.943Z,102214.56
2023-05-18T21:41:40.271Z,102221.72
2023-05-18T21:44:07.339Z,102223.72
2023-05-18T21:46:35.519Z,102224.09
2023-05-18T21:49:06.925Z,102211.88
2023-05-18T21:51:45.428Z,102217.63
2023-05-18T21:54:13.826Z,102209.16
2023-05-18T21:56:42.468Z,102216.34
2023-05-18T21:59:11.690Z,102219.09
2023-05-18T22:01:38.631Z,102223.00
2023-05-18T22:04:05.560Z,102225.41
2023-05-18T22:06:34.435Z,102226.78
2023-05-18T22:09:01.348Z,102228.34
2023-05-18T22:11:37.336Z,102233.28
2023-05-18T22:14:05.160Z,102226.47
2023-05-18T22:16:31.985Z,102226.78
2023-05-18T22:18:58.871Z,102224.56
2023-05-18T22:21:28.372Z,102224.41
2023-05-18T22:23:55.565Z,102222.47
2023-05-18T22:26:22.550Z,102218.13
2023-05-18T22:28:55.795Z,102218.88
2023-05-18T22:31:22.715Z,102217.97
2023-05-18T22:33:53.234Z,102224.97
2023-05-18T22:36:21.977Z,102221.91
2023-05-18T22:38:49.832Z,102214.84
2023-05-18T22:41:17.581Z,102200.06
2023-05-18T22:43:47.753Z,102212.13
2023-05-18T22:46:14.880Z,102196.63
2023-05-18T22:48:41.914Z,102211.75
2023-05-18T22:51:09.169Z,102205.78
2023-05-18T22:53:36.410Z,102204.72
2023-05-18T22:56:03.770Z,102198.16
2023-05-18T22:58:34.146Z,102205.00
2023-05-18T23:01:02.333Z,102194.03
2023-05-18T23:03:29.128Z,102190.03
2023-05-18T23:05:57.168Z,102194.63
2023-05-18T23:08:24.260Z,102198.72
2023-05-18T23:10:51.155Z,102198.09
2023-05-18T23:13:19.749Z,102198.88
2023-05-18T23:15:47.903Z,102194.53
2023-05-18T23:18:15.490Z,102190.28
2023-05-18T23:20:42.420Z,102191.59
2023-05-18T23:23:09.349Z,102193.47
2023-05-18T23:25:36.295Z,102187.94
2023-05-18T23:28:03.317Z,102189.06
2023-05-18T23:30:32.501Z,102197.16
2023-05-18T23:33:00.980Z,102186.81
2023-05-18T23:35:28.310Z,102192.88
2023-05-18T23:37:57.057Z,102193.56
2023-05-18T23:40:25.051Z,102188.88
2023-05-18T23:42:52.307Z,102189.78
2023-05-18T23:45:19.842Z,102194.00
2023-05-18T23:47:47.228Z,102187.19
2023-05-18T23:50:14.595Z,102189.91
2023-05-18T23:52:42.334Z,102187.69
2023-05-18T23:55:11.090Z,102183.59
2023-05-18T23:57:38.186Z,102182.50
